Bishops Head, MD NWLON current weather conditions

sailwx.info

Wind from 353 at 3 knots gusting 5

Water temperature -0.0° C

Last reported at 2015-Feb-28 00:30 UTC.
Time now 2015-Feb-28 01:58 UTC

Location: N 38°13' W 076°02'.
View on Google Maps.

See reports from other nearby stations

  
Tides and Currents Weather Stations Pressure Air Temp Water Temp Dewpoint Dewpoint Depression Visibility Wind Speed Wind Dir Waves Ship Positions
date/time (UTC)wind fromknots sea level pressurealtimeterstation pressurevisibilityair tempwater tempwave heightnotes
2015-Feb-28 00:30 353 3 gusting 5 -0.0
2015-Feb-28 00:24 350 3 gusting 6 -0.0
2015-Feb-28 00:18 349 4 gusting 6 -2.8-0.0
2015-Feb-28 00:12 348 4 gusting 6 -0.0
2015-Feb-28 00:06 347 4 gusting 6 -0.0
2015-Feb-28 00:00 344 5 gusting 6 -3.3-0.0
2015-Feb-27 23:30 343 6 gusting 8 -2.2-0.0
2015-Feb-27 23:24 345 6 gusting 7 -0.0
2015-Feb-27 23:18 348 5 gusting 6 -0.0
2015-Feb-27 23:12 350 4 gusting 6 -1.7-0.0
2015-Feb-27 23:06 356 3 gusting 6 0.6
2015-Feb-27 23:00 351 3 gusting 6 -0.0
2015-Feb-27 22:54 357 3 gusting 6 -1.7-0.0
2015-Feb-27 22:48 357 3 gusting 6 -0.0
2015-Feb-27 22:36 006 6 gusting 8
2015-Feb-27 22:30 009 6 gusting 7
2015-Feb-27 22:24 005 6 gusting 8
2015-Feb-27 22:18 003 5 gusting 6
2015-Feb-27 22:12 010 5 gusting 7
2015-Feb-27 22:06 007 6 gusting 7 -0.6-0.0
2015-Feb-27 22:00 002 6 gusting 9
2015-Feb-27 21:54 004 6 gusting 9
2015-Feb-27 21:24 016 5 gusting 7 -0.0-0.6
2015-Feb-27 21:18 009 5 gusting 6
2015-Feb-27 21:12 330 5 gusting 7 -0.0-0.6
2015-Feb-27 21:06 348 4 gusting 6 -0.6
2015-Feb-27 21:00 355 5 gusting 8
2015-Feb-27 20:54 011 4 gusting 7
2015-Feb-27 20:48 022 5 gusting 8
2015-Feb-27 20:30 336 8 gusting 11 -0.6-0.6
2015-Feb-27 20:24 359 6 gusting 8
2015-Feb-27 20:18 345 5 gusting 10
2015-Feb-27 20:12 348 6 gusting 7
2015-Feb-27 20:06 343 5 gusting 9
2015-Feb-27 20:00 351 5 gusting 9
2015-Feb-27 19:54 341 7 gusting 9
2015-Feb-27 19:36 345 8 gusting 10
2015-Feb-27 19:30 335 7 gusting 9
2015-Feb-27 19:18 343 8 gusting 11
2015-Feb-27 19:12 354 7 gusting 11
2015-Feb-27 19:06 341 10 gusting 13 -0.6-0.6
2015-Feb-27 19:00 340 9 gusting 13
2015-Feb-27 18:54 343 10 gusting 13
2015-Feb-27 18:48 331 10 gusting 13
2015-Feb-27 18:36 340 9 gusting 13 -0.6-0.6
2015-Feb-27 18:30 344 9 gusting 13
2015-Feb-27 18:24 342 7 gusting 11
2015-Feb-27 18:18 340 8 gusting 13
2015-Feb-27 18:12 346 8 gusting 13
2015-Feb-27 18:06 345 10 gusting 13
2015-Feb-27 18:00 341 9 gusting 13
2015-Feb-27 17:54 345 8 gusting 13
2015-Feb-27 17:48 345 9 gusting 11
2015-Feb-27 17:36 347 8 gusting 13 -0.0-0.6
2015-Feb-27 17:30 350 8 gusting 13
2015-Feb-27 17:24 344 9 gusting 13
2015-Feb-27 17:18 343 10 gusting 13
2015-Feb-27 17:12 342 9 gusting 14
2015-Feb-27 17:06 346 9 gusting 12 -0.0-0.6
2015-Feb-27 17:00 352 7 gusting 12 -0.0
2015-Feb-27 16:54 008 7 gusting 11 -0.0
2015-Feb-27 16:48 347 6 gusting 8 0.6
2015-Feb-27 16:36 356 5 gusting 5 -0.6-0.6
2015-Feb-27 16:30 248 0 gusting 2
2015-Feb-27 16:24 233 1 gusting 3
2015-Feb-27 16:18 346 1 gusting 3
2015-Feb-27 16:12 045 2 gusting 4
2015-Feb-27 16:06 324 3 gusting 5 -0.6-0.6
2015-Feb-27 16:00 026 3 gusting 6
2015-Feb-27 15:54 026 4 gusting 6
2015-Feb-27 15:48 026 4 gusting 7
2015-Feb-27 15:36 021 4 gusting 6 -0.6-0.6
2015-Feb-27 15:30 032 5 gusting 7
2015-Feb-27 15:24 026 4 gusting 7
2015-Feb-27 15:18 021 5 gusting 6
2015-Feb-27 15:12 023 4 gusting 7
2015-Feb-27 15:06 018 5 gusting 6
2015-Feb-27 15:00 352 3 gusting 7
2015-Feb-27 14:54 338 5 gusting 7
2015-Feb-27 14:48 345 6 gusting 7
2015-Feb-27 14:24 337 6 gusting 8 -1.1-0.6
2015-Feb-27 14:18 349 5 gusting 6
2015-Feb-27 14:12 345 5 gusting 6
2015-Feb-27 14:06 343 4 gusting 6 -1.1-0.6
2015-Feb-27 14:00 347 5 gusting 6
2015-Feb-27 13:54 347 5 gusting 5
2015-Feb-27 13:48 352 3 gusting 5 -1.7-0.6
2015-Feb-27 13:30 353 3 gusting 5 -1.7-0.6
2015-Feb-27 13:24 357 3 gusting 5
2015-Feb-27 13:18 005 4 gusting 5
2015-Feb-27 13:12
2015-Feb-27 13:06 006 1 gusting 2 -1.7-0.6
2015-Feb-27 13:00 341 1 gusting 2 -2.2-0.6
2015-Feb-27 12:54 339 2 gusting 3
2015-Feb-27 12:48 334 2 gusting 2
2015-Feb-27 12:30 315 0 gusting 0 -2.2-0.6
2015-Feb-27 12:24 315 0 gusting 1
2015-Feb-27 12:18 315 1 gusting 2
2015-Feb-27 12:12 319 1 gusting 2
2015-Feb-27 12:06 333 2 gusting 3
2015-Feb-27 12:00 344 3 gusting 3 -2.2-0.6
2015-Feb-27 11:54 351 2 gusting 3
2015-Feb-27 11:48 014 1 gusting 3
2015-Feb-27 11:36 349 1 gusting 2
2015-Feb-27 11:30 006 1 gusting 2
2015-Feb-27 11:24 034 1 gusting 1
2015-Feb-27 11:18 006 0 gusting 1
2015-Feb-27 11:12 005
2015-Feb-27 11:06 127 0 gusting 1 -1.7-0.6
2015-Feb-27 11:00 150 1 gusting 2 -1.7-0.6
2015-Feb-27 10:54 143 1 gusting 1
2015-Feb-27 10:48 109 1 gusting 2
2015-Feb-27 10:36 098 2 gusting 2
2015-Feb-27 10:30 064 2 gusting 3
2015-Feb-27 10:24 063 2 gusting 3 -2.2-0.6
2015-Feb-27 10:18 066 2 gusting 3
2015-Feb-27 10:12 070 3 gusting 3
2015-Feb-27 10:06 072 3 gusting 3
2015-Feb-27 10:00 075 2 gusting 3
2015-Feb-27 09:54 085 2 gusting 2 -2.2-0.6
2015-Feb-27 09:48 087 2 gusting 3
2015-Feb-27 09:36 074 1 gusting 1 -2.2-0.6
2015-Feb-27 09:30 085
2015-Feb-27 09:24 355 1 gusting 1 -2.2-0.6
2015-Feb-27 09:18 354
2015-Feb-27 09:12 354 0 gusting 0 -2.2-0.6
2015-Feb-27 09:06 354
2015-Feb-27 09:00 354 0 gusting 1
2015-Feb-27 08:54 055 -2.2-0.6
2015-Feb-27 08:48 055 0 gusting 1
2015-Feb-27 08:36 056 1 gusting 1
2015-Feb-27 08:30 066 1 gusting 2
2015-Feb-27 08:24 071 1 gusting 2
2015-Feb-27 08:18 071 2 gusting 3
2015-Feb-27 08:12 068 3 gusting 4
2015-Feb-27 08:06 073 3 gusting 5
2015-Feb-27 08:00 071 4 gusting 4 -2.2-0.6
2015-Feb-27 07:54 068 3 gusting 4
2015-Feb-27 07:48 061 3 gusting 3
2015-Feb-27 07:30 032 1 gusting 2 -2.2-0.6
2015-Feb-27 07:24 022 1 gusting 2
2015-Feb-27 07:18 001 1 gusting 1
2015-Feb-27 07:12 002 1 gusting 2
2015-Feb-27 07:06 349 1 gusting 2
2015-Feb-27 07:00 351 1 gusting 2
2015-Feb-27 06:54 352 2 gusting 3
2015-Feb-27 06:48 023 2 gusting 3 -1.7-0.6
2015-Feb-27 06:24 034 3 gusting 3 -1.7-0.6
2015-Feb-27 06:18 032 2 gusting 3 -1.7-0.6
2015-Feb-27 05:54 052 2 gusting 2 -2.2-0.6
2015-Feb-27 05:48 045 1 gusting 2 -2.2-0.6
2015-Feb-27 05:36 046 1 gusting 2
2015-Feb-27 05:30 038 1 gusting 1
2015-Feb-27 05:24 002 1 gusting 2 -2.8-0.6
2015-Feb-27 05:18 041 1 gusting 2
2015-Feb-27 05:12 058 2 gusting 4
2015-Feb-27 05:06 060 3 gusting 4
2015-Feb-27 05:00 069 4 gusting 4
2015-Feb-27 04:54 064 4 gusting 6
2015-Feb-27 04:48 076 4 gusting 6
2015-Feb-27 04:36 068 5 gusting 6
2015-Feb-27 04:30 061 5 gusting 6
2015-Feb-27 04:24 059 4 gusting 5
2015-Feb-27 04:18 053 4 gusting 4
2015-Feb-27 04:12 049 4 gusting 4
2015-Feb-27 04:06 033 3 gusting 4
2015-Feb-27 04:00 025 2 gusting 4
2015-Feb-27 03:54 007 2 gusting 3
2015-Feb-27 03:48 001 2 gusting 3
2015-Feb-27 03:36 358 3 gusting 4 -2.2-0.6
2015-Feb-27 03:30 349 3 gusting 5
2015-Feb-27 03:24 357 3 gusting 4
2015-Feb-27 03:18 357 3 gusting 4
2015-Feb-27 03:12 007 2 gusting 3
2015-Feb-27 03:06 011 2 gusting 3
2015-Feb-27 03:00 022 2 gusting 4
2015-Feb-27 02:54 032 3 gusting 4
2015-Feb-27 02:48 033 4 gusting 4
2015-Feb-27 02:36 052 3 gusting 3 -1.7-0.6
2015-Feb-27 02:30 042 3 gusting 3
2015-Feb-27 02:24 034 3 gusting 3
2015-Feb-27 02:18 023 2 gusting 3
2015-Feb-27 02:12 007 1 gusting 2
2015-Feb-27 02:06 005 2 gusting 3 -2.2-0.0
2015-Feb-27 02:00 006 2 gusting 3
2015-Feb-27 01:54 011 2 gusting 3
2015-Feb-27 01:48 010 1 gusting 3
2015-Feb-27 01:36 004 2 gusting 3 -1.7-0.0
2015-Feb-27 01:30 003 2 gusting 2
2015-Feb-27 01:24 002 1 gusting 2
2015-Feb-27 01:18 019 1 gusting 1
2015-Feb-27 01:12 018 0 gusting 2
2015-Feb-27 01:06 009 1 gusting 2 -1.7-0.0
2015-Feb-27 01:00
2015-Feb-27 00:54 354 2 gusting 3 -1.1-0.0
2015-Feb-27 00:48 357 2 gusting 4
2015-Feb-27 00:36 351 3 gusting 3 -1.1
2015-Feb-27 00:30 357 2 gusting 4
2015-Feb-27 00:24 346 3 gusting 4 -1.1-0.0
2015-Feb-27 00:18 341 3 gusting 4 -0.0
2015-Feb-27 00:12 342 3 gusting 4 -0.0
2015-Feb-27 00:06 353 2 gusting 4 -0.0
2015-Feb-27 00:00 349 3 gusting 3 -0.0
2015-Feb-26 23:48 345 3 gusting 5 -0.0
2015-Feb-26 23:36 344 4 gusting 6 -0.6-0.0
2015-Feb-26 23:30 343 4 gusting 6 -0.0
2015-Feb-26 23:24 340 4 gusting 7 -0.0
2015-Feb-26 23:18 341 6 gusting 6
2015-Feb-26 23:12 340 5 gusting 6 -0.6-0.0
2015-Feb-26 23:06 340 6 gusting 7 -0.6
2015-Feb-26 23:00 332 6 gusting 6
2015-Feb-26 22:54 339 5 gusting 6
2015-Feb-26 22:48 340 4 gusting 6 -0.0
2015-Feb-26 22:36 339 6 gusting 9 -0.6-0.0
2015-Feb-26 22:30 339 7 gusting 9 -0.0
2015-Feb-26 22:24 336 6 gusting 9 -0.0
2015-Feb-26 22:18 332 8 gusting 13 -0.0
2015-Feb-26 22:12 341 8 gusting 9 -0.0
2015-Feb-26 22:06 341 8 gusting 13 -0.0
2015-Feb-26 22:00 343 11 gusting 13 -0.0
2015-Feb-26 21:54 343 9 gusting 12 -0.0-0.0
2015-Feb-26 21:48 343 8 gusting 13 -0.0
2015-Feb-26 21:36 342 8 gusting 10 -0.0-0.0
2015-Feb-26 21:30 343 7 gusting 9 0.6 0.6
2015-Feb-26 21:24 346 6 gusting 9 0.6 0.6
2015-Feb-26 21:18 348 6 gusting 8 0.6 0.6
2015-Feb-26 21:12 343 6 gusting 9 0.6 0.6
2015-Feb-26 21:06 339 6 gusting 8 0.6 0.6
2015-Feb-26 21:00 006 3 gusting 7 0.6 0.6
2015-Feb-26 20:54 009 5 gusting 7 0.6 0.6
2015-Feb-26 20:48 010 5 gusting 7 -0.0 0.6
2015-Feb-26 20:36 010 6 gusting 10 -0.0-0.0
2015-Feb-26 20:30 008 6 gusting 9
2015-Feb-26 20:24 006 7 gusting 10 -0.0-0.0
2015-Feb-26 20:18 010 7 gusting 12
2015-Feb-26 20:12 008 8 gusting 13
2015-Feb-26 20:06 006 7 gusting 12
2015-Feb-26 20:00 011 5 gusting 9
2015-Feb-26 19:54 019 5 gusting 10 -0.6-0.6
2015-Feb-26 19:48 009 7 gusting 13
2015-Feb-26 19:36 011 7 gusting 12 -0.6-0.6
2015-Feb-26 19:30 009 7 gusting 11
2015-Feb-26 19:24 010 7 gusting 13
2015-Feb-26 19:18 008 9 gusting 13
2015-Feb-26 19:12 005 8 gusting 13
2015-Feb-26 19:06 008 9 gusting 14 -0.6-0.6
2015-Feb-26 19:00 011 9 gusting 14
2015-Feb-26 18:54 008 9 gusting 13
2015-Feb-26 18:48 009 9 gusting 13
2015-Feb-26 18:36 013 9 gusting 13 -0.6-0.6
2015-Feb-26 18:30 016 9 gusting 14
2015-Feb-26 18:24 021 9 gusting 13
2015-Feb-26 18:18 005 8 gusting 15
2015-Feb-26 18:12 029 11 gusting 14
2015-Feb-26 17:18 027 13 gusting 22
2015-Feb-26 17:12 027 15 gusting 20
2015-Feb-26 17:06 027 12 gusting 16 -0.6-0.6
2015-Feb-26 17:00 020 9 gusting 15
2015-Feb-26 16:54 024 10 gusting 21
2015-Feb-26 16:48 027 15 gusting 19
2015-Feb-26 16:36 030 18 gusting 23 -0.6-0.6
2015-Feb-26 16:30 022 13 gusting 22
2015-Feb-26 16:24 026 14 gusting 20
2015-Feb-26 16:18 018 12 gusting 21
2015-Feb-26 16:12 025 14 gusting 26
2015-Feb-26 16:06 029 19 gusting 22 -0.6-0.6
2015-Feb-26 16:00 020 12 gusting 21
2015-Feb-26 15:54 026 16 gusting 21
2015-Feb-26 15:48 027 16 gusting 25
2015-Feb-26 15:36 022 12 gusting 16
2015-Feb-26 15:30 021 11 gusting 15
2015-Feb-26 15:24 017 11 gusting 16 -1.1-1.1
2015-Feb-26 15:18 017 11 gusting 16
2015-Feb-26 15:12 020 10 gusting 16
2015-Feb-26 15:06 018 11 gusting 15
2015-Feb-26 15:00 015 11 gusting 19
2015-Feb-26 14:54 014 10 gusting 16
2015-Feb-26 14:48 016 11 gusting 18
2015-Feb-26 14:36 012 13 gusting 18
2015-Feb-26 14:30 013 11 gusting 18
2015-Feb-26 14:24 010 13 gusting 18 -1.7-1.1
2015-Feb-26 14:18 008 13 gusting 18
2015-Feb-26 14:12 011 11 gusting 17
2015-Feb-26 14:06 009 13 gusting 18
2015-Feb-26 14:00 009 13 gusting 17
2015-Feb-26 13:54 007 11 gusting 18
2015-Feb-26 13:48 009 12 gusting 17
2015-Feb-26 13:36 012 11 gusting 17
2015-Feb-26 13:30 013 10 gusting 16
2015-Feb-26 13:24 010 11 gusting 16 -1.1-1.1
2015-Feb-26 13:18 006 13 gusting 16
2015-Feb-26 13:12 009 11 gusting 15
2015-Feb-26 13:06 015 9 gusting 14
2015-Feb-26 13:00 019 9 gusting 13
2015-Feb-26 12:54 015 10 gusting 15
2015-Feb-26 12:48 019 10 gusting 14
2015-Feb-26 12:36 015 10 gusting 16
2015-Feb-26 12:30 018 9 gusting 13
2015-Feb-26 12:24 015 9 gusting 14 -1.7-1.1
2015-Feb-26 12:18 016 7 gusting 16
2015-Feb-26 12:12 023 9 gusting 12
2015-Feb-26 12:06 025 9 gusting 15 -1.7-1.1
2015-Feb-26 12:00 026 11 gusting 18
2015-Feb-26 11:54 035 14 gusting 18
2015-Feb-26 11:48 036 13 gusting 17
2015-Feb-26 11:36 040 10 gusting 16 -1.7-0.6
2015-Feb-26 11:30 044 12 gusting 16
2015-Feb-26 11:24 045 10 gusting 13
2015-Feb-26 11:18 043 11 gusting 14
2015-Feb-26 11:12 042 9 gusting 13
2015-Feb-26 11:06 038 9 gusting 13 -1.1-0.6
2015-Feb-26 11:00 035 13 gusting 15
2015-Feb-26 10:54 033 10 gusting 15
2015-Feb-26 10:48 030 13 gusting 14
2015-Feb-26 10:36 036 10 gusting 12 -1.1-0.6
2015-Feb-26 10:30 037 7 gusting 11
2015-Feb-26 10:24 038 9 gusting 13
2015-Feb-26 10:18 034 9 gusting 11
2015-Feb-26 10:12 036 7 gusting 11
2015-Feb-26 10:06 034 9 gusting 13 -1.1-0.6
2015-Feb-26 10:00 035 11 gusting 13
2015-Feb-26 09:54 036 10 gusting 14
2015-Feb-26 09:48 040 10 gusting 13
2015-Feb-26 09:42 036 11 gusting 13
2015-Feb-26 09:36 039 9 gusting 12 -1.1-0.6
2015-Feb-26 09:30 038 7 gusting 11
2015-Feb-26 09:24 045 9 gusting 13
2015-Feb-26 09:18 050 10 gusting 11
2015-Feb-26 09:12 060 7 gusting 12
2015-Feb-26 09:06 066 9 gusting 12
2015-Feb-26 09:00 068 8 gusting 11
2015-Feb-26 08:54 076 9 gusting 12
2015-Feb-26 08:48 080 9 gusting 12
2015-Feb-26 08:30 089 9 gusting 13 -0.0-0.6
2015-Feb-26 08:24 084 9 gusting 12 -0.0
2015-Feb-26 08:18 080 8 gusting 14 -0.0
2015-Feb-26 08:12 077 7 gusting 8 0.6-0.6
2015-Feb-26 08:06 087 6 gusting 10 0.6
2015-Feb-26 08:00 078 8 gusting 9 0.6
2015-Feb-26 07:54 076 6 gusting 7 0.6-0.6
2015-Feb-26 07:48 079 6 gusting 8 0.6
2015-Feb-26 07:36 093 6 gusting 8 0.6
2015-Feb-26 07:30 090 6 gusting 10 0.6
2015-Feb-26 07:24 104 9 gusting 12 0.6
2015-Feb-26 07:18 106 9 gusting 11 0.6
2015-Feb-26 07:12 101 9 gusting 11 0.6
2015-Feb-26 07:06 095 9 gusting 11 0.6
2015-Feb-26 07:00 099 7 gusting 9 -0.0
2015-Feb-26 06:54 099 6 gusting 7 -0.0
2015-Feb-26 06:48 096 6 gusting 7 -0.0-0.0
2015-Feb-26 06:18 103 6 gusting 8 -0.0
2015-Feb-26 06:00 088 6 gusting 6 -0.0-0.0
2015-Feb-26 05:54 077 5 gusting 6 -0.0-0.0
2015-Feb-26 05:48 076 5 gusting 5 -0.6-0.0
2015-Feb-26 05:36 071 4 gusting 5
2015-Feb-26 05:30 088 3 gusting 3
2015-Feb-26 05:24 091 3 gusting 4
2015-Feb-26 05:18 094 3 gusting 4
2015-Feb-26 05:12 094 2 gusting 4 -0.6-0.0
2015-Feb-26 05:06 082 3 gusting 6
2015-Feb-26 05:00 074 5 gusting 6
2015-Feb-26 04:54 086 6 gusting 6
2015-Feb-26 04:48 087 5 gusting 6
2015-Feb-26 04:36 096 2 gusting 3
2015-Feb-26 04:30 068 2 gusting 3
2015-Feb-26 04:24 056 3 gusting 3
2015-Feb-26 04:18 039 1 gusting 3 -0.0-0.0
2015-Feb-26 04:12 047 2 gusting 4 -0.6-0.0
2015-Feb-26 03:54 058 3 gusting 4 -0.0
2015-Feb-26 03:48 086 5 gusting 6 -0.0
2015-Feb-26 03:30 089 5 gusting 6 -0.0
2015-Feb-26 03:24 096 5 gusting 6 -0.0
2015-Feb-26 03:18 104 5 gusting 7 -0.0
2015-Feb-26 03:12 091 6 gusting 6 -0.0
2015-Feb-26 03:06 083 5 gusting 6 -0.6 0.6
2015-Feb-26 03:00 081 4 gusting 6 0.6
2015-Feb-26 02:54 074 5 gusting 6 0.6
2015-Feb-26 02:48 071 5 gusting 6 -0.6 0.6
2015-Feb-26 02:30 078 3 gusting 4 0.6
2015-Feb-26 02:24 069 3 gusting 4 0.6
2015-Feb-26 02:18 058 3 gusting 3 -0.6 0.6
2015-Feb-26 02:12 042 3 gusting 3 0.6
2015-Feb-26 02:06 045 2 gusting 3 0.6
2015-Feb-26 02:00 018 2 gusting 3 0.6
2015-Feb-26 01:54 041 2 gusting 3 0.6
2015-Feb-26 01:48 052 3 gusting 3 -0.6 0.6
2015-Feb-26 01:30 063 4 gusting 4 -0.6 0.6
2015-Feb-26 01:24 063 4 gusting 4 0.6
2015-Feb-26 01:18 059 3 gusting 4 0.6
2015-Feb-26 01:12 063 3 gusting 6 -0.6 0.6
2015-Feb-26 01:06 047 5 gusting 6 0.6
2015-Feb-26 01:00 161 3 gusting 4 0.6